Time;durP1;ratioP1;P1;durP2;ratioP2;P2;SDS_P1;SDS_P2;PMS_P1;PMS_P2;Temp;Humidity;BMP_temperature;BMP_pressure;BME280_temperature;BME280_humidity;BME280_pressure;Samples;Min_cycle;Max_cycle;Signal;HPM_P1;HPM_P2
2022/02/12 00:01:06;;;;;;;8.73;3.90;;;0.20;99.90;;;;;;5094056;28;20678;-73
2022/02/12 00:03:33;;;;;;;6.50;3.70;;;0.20;99.90;;;;;;5093163;28;20238;-76
2022/02/12 00:05:59;;;;;;;5.85;4.40;;;0.20;99.90;;;;;;5093287;28;20160;-74
2022/02/12 00:08:27;;;;;;;6.50;2.83;;;0.20;99.90;;;;;;5093758;28;20702;-77
2022/02/12 00:10:53;;;;;;;5.35;4.95;;;0.10;99.90;;;;;;5093734;28;20406;-75
2022/02/12 00:13:19;;;;;;;6.33;4.07;;;0.10;99.90;;;;;;5093408;28;20172;-75
2022/02/12 00:15:44;;;;;;;9.60;4.23;;;0.10;99.90;;;;;;5093299;28;20237;-74
2022/02/12 00:18:10;;;;;;;4.73;4.40;;;0.10;99.90;;;;;;5093875;28;20530;-75
2022/02/12 00:20:37;;;;;;;4.07;3.17;;;0.20;99.90;;;;;;5093608;28;20530;-73
2022/02/12 00:23:06;;;;;;;4.32;3.67;;;0.10;99.90;;;;;;5093031;28;20819;-77
2022/02/12 00:25:31;;;;;;;4.40;3.85;;;0.20;99.90;;;;;;5093514;28;20675;-76
2022/02/12 00:28:01;;;;;;;2.17;2.03;;;0.10;99.90;;;;;;5093230;28;20183;-76
2022/02/12 00:30:28;;;;;;;4.70;4.10;;;0.20;99.90;;;;;;5093115;28;20172;-76
2022/02/12 00:32:54;;;;;;;3.65;3.42;;;0.10;99.90;;;;;;5093229;28;20511;-73
2022/02/12 00:35:19;;;;;;;3.85;3.55;;;0.20;99.90;;;;;;5093103;28;20202;-75
2022/02/12 00:37:47;;;;;;;4.33;4.03;;;0.20;99.90;;;;;;5093409;28;20167;-72
2022/02/12 00:40:13;;;;;;;5.10;4.53;;;0.20;99.90;;;;;;5093398;28;20177;-73
2022/02/12 00:42:38;;;;;;;4.13;3.03;;;0.20;99.90;;;;;;5092883;28;20255;-75
2022/02/12 00:45:05;;;;;;;4.47;3.97;;;0.20;99.90;;;;;;5092827;28;20454;-74
2022/02/12 00:47:30;;;;;;;8.13;3.95;;;0.10;99.90;;;;;;5093042;28;20170;-75
2022/02/12 00:49:56;;;;;;;4.13;3.33;;;0.10;99.90;;;;;;5091738;28;20217;-75
2022/02/12 00:52:22;;;;;;;3.10;2.90;;;0.00;99.90;;;;;;5093045;28;20168;-76
2022/02/12 00:54:48;;;;;;;6.73;4.20;;;-0.10;99.90;;;;;;5092844;28;20247;-74
2022/02/12 00:57:13;;;;;;;7.28;4.05;;;-0.10;99.90;;;;;;5092993;28;20168;-77
2022/02/12 00:59:39;;;;;;;4.73;4.07;;;-0.10;99.90;;;;;;5092866;28;20179;-73
2022/02/12 01:02:05;;;;;;;5.80;2.87;;;-0.10;99.90;;;;;;5092130;28;20172;-77
2022/02/12 01:04:30;;;;;;;5.97;4.67;;;-0.10;99.90;;;;;;5091465;28;20208;-76
2022/02/12 01:06:56;;;;;;;3.07;2.77;;;0.00;99.90;;;;;;5093002;28;20161;-76
2022/02/12 01:09:21;;;;;;;3.70;3.33;;;-0.10;99.90;;;;;;5093015;28;20499;-74
2022/02/12 01:11:47;;;;;;;4.73;4.43;;;-0.10;99.90;;;;;;5095674;28;20164;-75
2022/02/12 01:14:13;;;;;;;6.47;3.97;;;-0.10;99.90;;;;;;5096087;28;20196;-74
2022/02/12 01:16:39;;;;;;;6.03;3.23;;;-0.20;99.90;;;;;;5096825;28;20173;-76
2022/02/12 01:19:05;;;;;;;4.75;4.20;;;-0.20;99.90;;;;;;5096496;28;20170;-73
2022/02/12 01:21:30;;;;;;;9.20;3.40;;;-0.20;99.90;;;;;;5096439;28;20168;-74
2022/02/12 01:23:56;;;;;;;7.00;4.00;;;-0.10;99.90;;;;;;5095806;28;20299;-76
2022/02/12 01:26:22;;;;;;;6.20;4.33;;;-0.10;99.90;;;;;;5095024;28;20532;-75
2022/02/12 01:28:47;;;;;;;3.27;3.00;;;-0.20;99.90;;;;;;5096829;28;20227;-74
2022/02/12 01:31:14;;;;;;;6.00;4.63;;;-0.10;99.90;;;;;;5096151;28;20533;-74
2022/02/12 01:33:40;;;;;;;6.57;4.10;;;-0.20;99.90;;;;;;5095921;28;20184;-76
2022/02/12 01:36:05;;;;;;;2.17;1.97;;;-0.10;99.90;;;;;;5096049;28;20175;-74
2022/02/12 01:38:31;;;;;;;4.93;2.80;;;-0.10;99.90;;;;;;5095573;28;20520;-76
2022/02/12 01:40:57;;;;;;;2.20;1.93;;;-0.10;99.90;;;;;;5096430;28;20200;-76
2022/02/12 01:43:23;;;;;;;5.47;3.43;;;-0.20;99.90;;;;;;5096725;28;20741;-75
2022/02/12 01:45:50;;;;;;;3.80;3.40;;;-0.20;99.90;;;;;;5096566;28;20450;-75
2022/02/12 01:48:15;;;;;;;4.47;3.08;;;-0.20;99.90;;;;;;5096536;28;20185;-76
2022/02/12 01:50:41;;;;;;;4.87;2.60;;;-0.20;99.90;;;;;;5096103;28;20168;-74
2022/02/12 01:53:07;;;;;;;3.60;2.30;;;-0.20;99.90;;;;;;5077867;28;20423;-74
2022/02/12 01:55:33;;;;;;;2.83;2.63;;;-0.20;99.90;;;;;;5095803;28;20226;-74
2022/02/12 01:57:58;;;;;;;3.97;3.67;;;-0.30;99.90;;;;;;5095947;28;20519;-75
2022/02/12 02:00:24;;;;;;;2.27;2.07;;;-0.30;99.90;;;;;;5095132;28;20538;-74
2022/02/12 02:02:50;;;;;;;4.00;3.70;;;-0.30;99.90;;;;;;5095401;28;20182;-76
2022/02/12 02:05:17;;;;;;;4.83;3.80;;;-0.30;99.90;;;;;;5095711;28;20192;-75
2022/02/12 02:07:43;;;;;;;7.40;5.65;;;-0.30;99.90;;;;;;5095710;28;20463;-74
2022/02/12 02:10:10;;;;;;;3.17;2.88;;;-0.30;99.90;;;;;;5096098;28;20214;-76
2022/02/12 02:12:36;;;;;;;6.03;3.25;;;-0.30;99.90;;;;;;5095629;28;20184;-74
2022/02/12 02:15:03;;;;;;;3.70;3.47;;;-0.20;99.90;;;;;;5094941;28;20184;-74
2022/02/12 02:17:29;;;;;;;5.07;2.30;;;-0.20;99.90;;;;;;5095392;28;20398;-76
2022/02/12 02:19:54;;;;;;;3.60;2.77;;;-0.20;99.90;;;;;;5095355;28;20700;-77
2022/02/12 02:22:35;;;;;;;3.80;3.03;;;-0.20;99.90;;;;;;5095292;28;20572;-76
2022/02/12 02:25:01;;;;;;;4.15;2.72;;;-0.20;99.90;;;;;;5093683;28;20210;-76
2022/02/12 02:27:28;;;;;;;3.58;3.30;;;-0.30;99.90;;;;;;5095245;28;20584;-75
2022/02/12 02:29:55;;;;;;;3.47;3.28;;;-0.30;99.90;;;;;;5094261;28;20168;-77
2022/02/12 02:32:20;;;;;;;3.30;2.55;;;-0.20;99.90;;;;;;5095329;28;20209;-73
2022/02/12 02:34:52;;;;;;;1.83;1.73;;;-0.20;99.90;;;;;;5094742;28;20592;-75
2022/02/12 02:37:20;;;;;;;5.40;4.07;;;-0.30;99.90;;;;;;5095038;28;20409;-75
2022/02/12 02:39:46;;;;;;;2.92;2.58;;;-0.30;99.90;;;;;;5094929;28;20251;-73
2022/02/12 02:42:12;;;;;;;2.37;2.27;;;-0.40;99.90;;;;;;5094918;28;20255;-75
2022/02/12 02:44:38;;;;;;;2.78;1.75;;;-0.40;99.90;;;;;;5094125;28;20527;-76
2022/02/12 02:47:32;;;;;;;3.97;3.58;;;-0.40;99.90;;;;;;5094526;28;20177;-74
2022/02/12 02:49:50;;;;;;;2.55;2.40;;;-0.40;99.90;;;;;;5094255;28;20666;-77
2022/02/12 02:57:45;;;;;;;2.47;2.28;;;-0.40;99.90;;;;;;5093549;28;20263;-74
2022/02/12 03:00:12;;;;;;;3.25;2.95;;;-0.50;99.90;;;;;;5094218;28;20168;-75
2022/02/12 03:02:37;;;;;;;3.95;3.15;;;-0.50;99.90;;;;;;5094670;28;20548;-74
2022/02/12 03:05:04;;;;;;;2.83;2.73;;;-0.50;99.90;;;;;;5094037;28;20199;-74
2022/02/12 03:07:29;;;;;;;4.45;3.78;;;-0.60;99.90;;;;;;5094507;28;20171;-74
2022/02/12 03:09:55;;;;;;;3.60;3.07;;;-0.60;99.90;;;;;;5094450;28;20194;-73
2022/02/12 03:12:20;;;;;;;3.73;3.40;;;-0.60;99.90;;;;;;5094451;28;20159;-74
2022/02/12 03:14:46;;;;;;;3.50;2.77;;;-0.70;99.90;;;;;;5092581;28;20666;-74
2022/02/12 03:17:12;;;;;;;3.03;2.80;;;-0.80;99.90;;;;;;5094266;28;20176;-74
2022/02/12 03:19:37;;;;;;;4.53;3.63;;;-0.70;99.90;;;;;;5094326;28;20184;-75
2022/02/12 03:22:03;;;;;;;4.20;3.80;;;-0.70;99.90;;;;;;5093931;28;20178;-73
2022/02/12 03:24:29;;;;;;;14.77;3.10;;;-0.70;99.90;;;;;;5093836;28;20204;-74
2022/02/12 03:26:54;;;;;;;2.87;2.63;;;-0.70;99.90;;;;;;5093871;28;20247;-76
2022/02/12 03:29:22;;;;;;;4.33;3.93;;;-0.70;99.90;;;;;;5093648;28;20650;-73
2022/02/12 03:31:48;;;;;;;4.32;3.30;;;-0.80;99.90;;;;;;5093897;28;20179;-76
2022/02/12 03:34:13;;;;;;;6.65;4.65;;;-0.80;99.90;;;;;;5093143;28;20196;-74
2022/02/12 03:36:39;;;;;;;5.73;3.77;;;-0.80;99.90;;;;;;5094226;28;20174;-75
2022/02/12 03:39:05;;;;;;;3.67;3.37;;;-0.70;99.90;;;;;;5093964;28;20166;-74
2022/02/12 03:41:30;;;;;;;4.60;3.30;;;-0.70;99.90;;;;;;5093948;28;20257;-76
2022/02/12 03:43:56;;;;;;;7.30;4.70;;;-0.70;99.90;;;;;;5093248;28;20199;-74
2022/02/12 03:46:21;;;;;;;3.53;3.13;;;-0.80;99.90;;;;;;5093636;28;20165;-74
2022/02/12 03:48:47;;;;;;;6.53;3.50;;;-0.70;99.90;;;;;;5092339;28;20522;-74
2022/02/12 03:51:16;;;;;;;4.70;2.97;;;-0.70;99.90;;;;;;5094027;28;20252;-75
2022/02/12 03:53:41;;;;;;;6.10;4.00;;;-0.70;99.90;;;;;;5093382;28;20578;-75
2022/02/12 03:56:07;;;;;;;4.40;3.87;;;-0.70;99.90;;;;;;5092506;28;20187;-75
2022/02/12 03:58:33;;;;;;;5.70;3.40;;;-0.70;99.90;;;;;;5093615;28;20177;-75
2022/02/12 04:00:58;;;;;;;4.20;2.47;;;-0.70;99.90;;;;;;5093675;28;20175;-74
2022/02/12 04:03:24;;;;;;;2.90;2.70;;;-0.80;99.90;;;;;;5093203;28;20210;-73
2022/02/12 04:05:49;;;;;;;4.43;3.00;;;-0.80;99.90;;;;;;5093450;28;20241;-75
2022/02/12 04:08:18;;;;;;;2.60;2.43;;;-0.80;99.90;;;;;;5093564;28;20347;-75
2022/02/12 04:10:48;;;;;;;2.08;1.98;;;-0.80;99.90;;;;;;5092395;28;20176;-75
2022/02/12 04:13:14;;;;;;;3.38;3.17;;;-0.90;99.90;;;;;;5093279;28;20172;-74
2022/02/12 04:15:40;;;;;;;7.57;3.92;;;-0.80;99.90;;;;;;5093238;28;20661;-74
2022/02/12 04:18:09;;;;;;;2.33;2.13;;;-0.80;99.90;;;;;;5093339;28;20176;-74
2022/02/12 04:20:34;;;;;;;2.33;2.13;;;-0.80;99.90;;;;;;5094714;28;20533;-74
2022/02/12 04:23:00;;;;;;;3.40;3.03;;;-0.80;99.90;;;;;;5091642;28;20171;-75
2022/02/12 04:25:27;;;;;;;6.50;3.20;;;-0.80;99.90;;;;;;5093425;28;20193;-75
2022/02/12 04:27:52;;;;;;;4.03;3.60;;;-0.80;99.90;;;;;;5093661;28;20314;-73
2022/02/12 04:30:18;;;;;;;8.10;4.40;;;-0.80;99.90;;;;;;5093395;28;20207;-75
2022/02/12 04:32:45;;;;;;;3.17;2.87;;;-0.80;99.90;;;;;;5092925;28;20188;-74
2022/02/12 04:35:13;;;;;;;2.90;2.70;;;-0.90;99.90;;;;;;5093293;28;20199;-76
2022/02/12 04:37:39;;;;;;;6.82;3.42;;;-0.90;99.90;;;;;;5093442;28;20561;-76
2022/02/12 04:40:05;;;;;;;4.03;3.80;;;-0.90;99.90;;;;;;5093641;28;20225;-74
2022/02/12 04:42:31;;;;;;;4.68;3.95;;;-1.00;99.90;;;;;;5093125;28;20170;-73
2022/02/12 04:44:57;;;;;;;2.33;2.20;;;-0.90;99.90;;;;;;5092741;28;20669;-75
2022/02/12 04:47:23;;;;;;;4.40;4.00;;;-1.00;99.90;;;;;;5096907;28;20515;-74
2022/02/12 04:49:49;;;;;;;2.88;2.75;;;-0.90;99.90;;;;;;5097108;28;20549;-72
2022/02/12 04:52:18;;;;;;;3.03;2.83;;;-0.90;99.90;;;;;;5096978;28;20160;-73
2022/02/12 04:54:44;;;;;;;4.53;2.65;;;-0.90;99.90;;;;;;5096385;28;20189;-74
2022/02/12 04:57:10;;;;;;;3.80;2.58;;;-0.80;99.90;;;;;;5096662;28;20733;-75
2022/02/12 04:59:36;;;;;;;3.92;3.50;;;-0.90;99.90;;;;;;5095989;28;20168;-77
2022/02/12 05:02:04;;;;;;;3.38;3.05;;;-0.90;99.90;;;;;;5096561;28;20180;-73
2022/02/12 05:04:30;;;;;;;3.88;3.58;;;-0.90;99.90;;;;;;5094659;28;20219;-74
2022/02/12 05:06:55;;;;;;;4.63;2.78;;;-0.90;99.90;;;;;;5096455;28;20172;-73
2022/02/12 05:09:21;;;;;;;6.23;4.60;;;-0.90;99.90;;;;;;5096683;28;20171;-74
2022/02/12 05:11:48;;;;;;;3.73;3.03;;;-0.90;99.90;;;;;;5096499;28;20225;-75
2022/02/12 05:14:15;;;;;;;7.22;3.55;;;-0.90;99.90;;;;;;5096155;28;20188;-76
2022/02/12 05:16:41;;;;;;;3.15;2.80;;;-0.90;99.90;;;;;;5096560;28;20176;-75
2022/02/12 05:19:06;;;;;;;2.65;2.47;;;-1.00;99.90;;;;;;5096480;28;20172;-73
2022/02/12 05:21:32;;;;;;;3.23;2.93;;;-1.00;99.90;;;;;;5096579;28;20176;-75
2022/02/12 05:23:59;;;;;;;3.33;2.23;;;-0.90;99.90;;;;;;5095958;28;20215;-74
2022/02/12 05:26:26;;;;;;;46.15;3.28;;;-0.90;99.90;;;;;;5096426;28;20226;-75
2022/02/12 05:28:51;;;;;;;3.58;3.38;;;-0.90;99.90;;;;;;5096194;28;20598;-73
2022/02/12 05:31:17;;;;;;;3.17;2.87;;;-0.90;99.90;;;;;;5096231;28;20178;-74
2022/02/12 05:33:42;;;;;;;6.20;4.40;;;-1.00;99.90;;;;;;5095736;28;20179;-73
2022/02/12 05:36:10;;;;;;;2.67;2.40;;;-1.00;99.90;;;;;;5096075;28;20612;-75
2022/02/12 05:38:39;;;;;;;6.28;3.40;;;-1.00;99.90;;;;;;5095768;28;20267;-74
2022/02/12 05:41:05;;;;;;;4.22;3.28;;;-1.10;99.90;;;;;;5096181;28;20206;-73
2022/02/12 05:43:32;;;;;;;3.85;3.55;;;-1.10;99.90;;;;;;5094840;28;20188;-75
2022/02/12 05:45:58;;;;;;;3.90;3.45;;;-1.10;99.90;;;;;;5094615;28;20259;-74
2022/02/12 05:48:24;;;;;;;3.38;2.95;;;-1.20;99.90;;;;;;5095676;28;20175;-75
2022/02/12 05:50:50;;;;;;;4.13;3.73;;;-1.20;99.90;;;;;;5095798;28;20168;-73
2022/02/12 05:53:15;;;;;;;4.20;3.93;;;-1.20;99.90;;;;;;5095157;28;20580;-75
2022/02/12 05:55:41;;;;;;;2.93;2.80;;;-1.20;99.90;;;;;;5094363;28;20658;-73
2022/02/12 05:58:07;;;;;;;6.80;4.87;;;-1.20;99.90;;;;;;5095176;28;20187;-74
2022/02/12 06:00:33;;;;;;;4.60;3.70;;;-1.20;99.90;;;;;;5095638;28;20425;-73
2022/02/12 06:02:59;;;;;;;3.50;3.20;;;-1.20;99.90;;;;;;5093430;28;21178;-73
2022/02/12 06:05:25;;;;;;;4.03;3.17;;;-1.20;99.90;;;;;;5095189;28;20279;-73
2022/02/12 06:07:50;;;;;;;2.63;2.53;;;-1.10;99.90;;;;;;5095256;28;20426;-73
2022/02/12 06:10:16;;;;;;;4.27;3.87;;;-1.10;99.90;;;;;;5095446;28;20240;-75
2022/02/12 06:12:42;;;;;;;3.93;3.73;;;-1.00;99.90;;;;;;5094931;28;20176;-75
2022/02/12 06:15:08;;;;;;;3.90;1.85;;;-1.10;99.90;;;;;;5095309;28;20193;-75
2022/02/12 06:17:34;;;;;;;2.85;2.45;;;-1.10;99.90;;;;;;5094922;28;20557;-73
2022/02/12 06:20:00;;;;;;;4.10;3.80;;;-1.10;99.90;;;;;;5095315;28;20175;-74
2022/02/12 06:22:27;;;;;;;6.18;4.82;;;-1.10;99.90;;;;;;5094307;28;20225;-74
2022/02/12 06:24:53;;;;;;;7.35;4.85;;;-1.20;99.90;;;;;;5094497;28;20196;-74
2022/02/12 06:27:19;;;;;;;3.47;2.78;;;-1.20;99.90;;;;;;5094671;28;20716;-74
2022/02/12 06:29:45;;;;;;;4.50;4.10;;;-1.20;99.90;;;;;;5095204;28;20618;-75
2022/02/12 06:32:11;;;;;;;5.63;3.70;;;-1.20;99.90;;;;;;5094888;28;20199;-73
2022/02/12 06:34:37;;;;;;;5.13;4.60;;;-1.10;99.90;;;;;;5094420;28;20292;-75
2022/02/12 06:37:03;;;;;;;2.63;2.42;;;-1.10;99.90;;;;;;5094516;28;20505;-74
2022/02/12 06:39:30;;;;;;;3.67;3.40;;;-1.10;99.90;;;;;;5094891;28;20176;-74
2022/02/12 06:41:55;;;;;;;3.58;3.35;;;-1.20;99.90;;;;;;5094579;28;20221;-76
2022/02/12 06:44:21;;;;;;;3.17;2.70;;;-1.20;99.90;;;;;;5094415;28;20200;-74
2022/02/12 06:46:47;;;;;;;5.70;3.77;;;-1.20;99.90;;;;;;5094396;28;20638;-75
2022/02/12 06:49:12;;;;;;;5.37;3.57;;;-1.20;99.90;;;;;;5094737;28;20200;-74
2022/02/12 06:51:38;;;;;;;3.43;3.00;;;-1.20;99.90;;;;;;5094314;28;20291;-76
2022/02/12 06:54:04;;;;;;;7.03;5.63;;;-1.30;99.90;;;;;;5094252;28;20187;-74
2022/02/12 06:56:30;;;;;;;5.07;2.60;;;-1.20;99.90;;;;;;5094197;28;20429;-74
2022/02/12 06:58:56;;;;;;;4.13;3.78;;;-1.30;99.90;;;;;;5094631;28;20301;-73
2022/02/12 07:01:26;;;;;;;4.77;3.57;;;-1.30;99.90;;;;;;5092667;28;20267;-75
2022/02/12 07:03:56;;;;;;;3.22;3.03;;;-1.20;99.90;;;;;;5090892;28;20192;-73
2022/02/12 07:06:23;;;;;;;3.40;3.00;;;-1.20;99.90;;;;;;5089476;28;20247;-75
2022/02/12 07:08:49;;;;;;;5.70;4.78;;;-1.20;99.90;;;;;;5092199;28;20533;-76
2022/02/12 07:11:15;;;;;;;4.73;4.30;;;-1.20;99.90;;;;;;5094237;28;20176;-74
2022/02/12 07:13:40;;;;;;;8.50;3.80;;;-1.20;99.90;;;;;;5093538;28;20519;-74
2022/02/12 07:16:07;;;;;;;15.63;4.17;;;-1.10;99.90;;;;;;5093957;28;20172;-73
2022/02/12 07:18:33;;;;;;;4.20;3.03;;;-1.10;99.90;;;;;;5094223;28;20176;-75
2022/02/12 07:20:59;;;;;;;4.55;4.00;;;-1.00;99.90;;;;;;5093504;28;20171;-74
2022/02/12 07:23:24;;;;;;;3.60;3.30;;;-0.90;99.90;;;;;;5092717;28;20583;-75
2022/02/12 07:25:50;;;;;;;10.70;5.07;;;-0.90;99.90;;;;;;5094605;28;20237;-72
2022/02/12 07:28:15;;;;;;;3.83;3.47;;;-0.80;99.90;;;;;;5093933;28;20178;-76
2022/02/12 07:30:41;;;;;;;4.60;4.20;;;-0.70;99.90;;;;;;5094033;28;20176;-75
2022/02/12 07:33:07;;;;;;;5.53;4.93;;;-0.70;99.90;;;;;;5091870;28;20176;-72
2022/02/12 07:35:33;;;;;;;4.82;4.07;;;-0.60;99.90;;;;;;5093704;28;20283;-72
2022/02/12 07:37:59;;;;;;;3.43;3.23;;;-0.60;99.90;;;;;;5092120;28;20263;-72
2022/02/12 07:40:26;;;;;;;9.77;4.10;;;-0.50;99.90;;;;;;5093661;28;20189;-71
2022/02/12 07:42:52;;;;;;;5.13;4.70;;;-0.40;99.90;;;;;;5092984;28;20168;-70
2022/02/12 07:45:18;;;;;;;6.20;4.70;;;-0.40;99.90;;;;;;5093486;28;20203;-73
2022/02/12 07:47:45;;;;;;;5.40;4.97;;;-0.40;99.90;;;;;;5092089;28;20248;-73
2022/02/12 07:50:13;;;;;;;7.15;5.20;;;-0.30;99.90;;;;;;5093328;28;20199;-72
2022/02/12 07:52:42;;;;;;;7.68;4.10;;;-0.20;99.90;;;;;;5091392;28;20244;-72
2022/02/12 07:55:08;;;;;;;3.67;3.35;;;-0.10;99.90;;;;;;5093038;28;20183;-74
2022/02/12 07:57:33;;;;;;;6.50;5.88;;;-0.10;99.90;;;;;;5092027;28;20176;-70
2022/02/12 07:59:59;;;;;;;8.30;5.43;;;0.00;99.90;;;;;;5093578;28;20186;-72
2022/02/12 08:02:26;;;;;;;4.47;4.07;;;0.20;99.90;;;;;;5092041;28;20183;-73
2022/02/12 08:04:51;;;;;;;5.95;5.28;;;0.20;99.90;;;;;;5092501;28;20552;-73
2022/02/12 08:07:29;;;;;;;5.30;4.37;;;0.40;99.90;;;;;;5093211;28;20609;-73
2022/02/12 08:09:56;;;;;;;4.10;3.78;;;0.60;99.90;;;;;;5093097;28;20168;-77
2022/02/12 08:12:23;;;;;;;5.68;4.45;;;0.90;99.90;;;;;;5088078;28;20199;-69
2022/02/12 08:14:50;;;;;;;6.40;3.67;;;1.20;99.90;;;;;;5091397;28;20274;-75
2022/02/12 08:17:17;;;;;;;14.10;6.07;;;1.50;99.90;;;;;;5091373;28;20184;-72
2022/02/12 08:19:44;;;;;;;7.03;4.50;;;1.90;99.90;;;;;;5093821;28;20172;-70
2022/02/12 08:22:13;;;;;;;12.27;5.53;;;2.30;99.90;;;;;;5096647;28;20164;-70
2022/02/12 08:24:39;;;;;;;9.15;4.45;;;2.50;99.90;;;;;;5096496;28;20200;-68
2022/02/12 08:27:06;;;;;;;5.93;4.07;;;3.00;99.90;;;;;;5096448;28;20221;-71
2022/02/12 08:29:32;;;;;;;10.80;6.25;;;3.30;99.90;;;;;;5095227;28;20424;-70
2022/02/12 08:31:58;;;;;;;16.07;8.40;;;4.20;99.90;;;;;;5095526;28;20631;-69
2022/02/12 08:34:25;;;;;;;8.85;6.00;;;5.20;99.90;;;;;;5095981;28;20438;-69
2022/02/12 08:36:51;;;;;;;5.60;5.05;;;6.30;99.90;;;;;;5091551;28;20927;-73
2022/02/12 08:39:17;;;;;;;8.35;5.75;;;7.30;99.90;;;;;;5095395;28;20177;-70
2022/02/12 08:41:43;;;;;;;5.00;4.50;;;8.10;99.90;;;;;;5093877;28;20186;-70
2022/02/12 08:44:09;;;;;;;4.47;4.07;;;8.90;99.90;;;;;;5095348;28;20453;-71
2022/02/12 08:46:34;;;;;;;4.70;3.70;;;9.90;99.90;;;;;;5095812;28;20172;-72
2022/02/12 08:49:00;;;;;;;4.30;3.17;;;10.70;99.90;;;;;;5094608;28;20642;-69
2022/02/12 08:51:26;;;;;;;3.80;3.50;;;11.30;99.90;;;;;;5095990;28;20189;-71
2022/02/12 08:53:52;;;;;;;4.13;3.60;;;12.00;99.90;;;;;;5095913;28;20263;-70
2022/02/12 08:56:18;;;;;;;4.60;3.97;;;12.50;96.90;;;;;;5094915;28;20455;-71
2022/02/12 08:58:44;;;;;;;3.97;3.63;;;12.90;96.00;;;;;;5094636;28;20172;-71
2022/02/12 09:01:09;;;;;;;4.20;3.40;;;13.10;92.60;;;;;;5092598;28;21004;-70
2022/02/12 09:03:35;;;;;;;5.73;3.37;;;13.30;94.10;;;;;;5093869;28;20287;-70
2022/02/12 09:06:02;;;;;;;4.90;4.10;;;13.80;93.40;;;;;;5093224;28;20686;-71
2022/02/12 09:08:28;;;;;;;5.00;3.73;;;14.30;91.60;;;;;;5093854;28;20486;-70
2022/02/12 09:10:53;;;;;;;6.30;3.10;;;14.70;90.40;;;;;;5094467;28;20419;-70
2022/02/12 09:13:19;;;;;;;4.23;3.83;;;15.10;87.60;;;;;;5095657;28;20505;-70
2022/02/12 09:15:45;;;;;;;4.53;4.17;;;15.40;86.20;;;;;;5095631;28;20199;-71
2022/02/12 09:18:11;;;;;;;3.17;2.87;;;15.80;83.30;;;;;;5095468;28;20172;-70
2022/02/12 09:20:38;;;;;;;3.60;2.90;;;16.00;82.20;;;;;;5095487;28;20988;-70
2022/02/12 09:23:04;;;;;;;3.20;2.93;;;16.00;82.90;;;;;;5095190;28;20232;-70
2022/02/12 09:25:30;;;;;;;3.73;3.30;;;16.10;81.30;;;;;;5095588;28;21031;-72
2022/02/12 09:27:55;;;;;;;4.50;2.97;;;16.20;80.90;;;;;;5095683;28;20424;-70
2022/02/12 09:30:21;;;;;;;3.10;2.50;;;15.70;77.00;;;;;;5095913;28;20572;-70
2022/02/12 09:32:50;;;;;;;2.90;2.57;;;15.50;79.30;;;;;;5093241;28;20183;-72
2022/02/12 09:35:16;;;;;;;4.33;3.60;;;15.50;80.40;;;;;;5090772;28;20198;-72
2022/02/12 09:37:45;;;;;;;4.57;3.90;;;15.40;79.90;;;;;;5095239;28;20832;-69
2022/02/12 09:40:12;;;;;;;3.50;3.20;;;15.20;81.10;;;;;;5095005;28;20425;-73
2022/02/12 09:42:38;;;;;;;3.17;2.97;;;15.40;80.50;;;;;;5095722;28;20385;-73
2022/02/12 09:45:07;;;;;;;4.13;3.23;;;15.60;80.00;;;;;;5095648;28;20576;-71
2022/02/12 09:47:48;;;;;;;3.20;2.97;;;15.80;81.50;;;;;;5095636;28;20920;-71
2022/02/12 09:50:19;;;;;;;3.37;2.43;;;15.90;77.00;;;;;;5095705;28;20402;-72
2022/02/12 09:52:52;;;;;;;3.30;2.93;;;15.80;78.40;;;;;;5095784;28;20403;-71
2022/02/12 09:55:18;;;;;;;3.10;2.80;;;15.70;78.40;;;;;;5095670;28;20436;-71
2022/02/12 09:57:44;;;;;;;2.73;2.53;;;15.60;78.50;;;;;;5094623;28;20417;-72
2022/02/12 10:00:15;;;;;;;3.00;2.80;;;15.40;76.70;;;;;;5095972;28;20414;-72
2022/02/12 10:02:41;;;;;;;2.70;2.50;;;15.10;78.40;;;;;;5095362;28;20284;-71
2022/02/12 10:05:23;;;;;;;5.50;2.60;;;15.00;79.00;;;;;;5095456;28;20960;-70
2022/02/12 10:07:51;;;;;;;3.70;2.80;;;14.70;79.30;;;;;;5095623;28;20405;-70
2022/02/12 10:10:20;;;;;;;6.30;4.00;;;14.70;81.10;;;;;;5096002;28;20403;-71
2022/02/12 10:12:49;;;;;;;16.73;2.60;;;14.70;82.00;;;;;;5095383;28;20815;-70
2022/02/12 10:15:32;;;;;;;5.67;2.97;;;14.70;79.50;;;;;;5095314;28;20430;-70
2022/02/12 10:18:00;;;;;;;3.17;2.83;;;14.70;79.30;;;;;;5095894;28;20394;-71
2022/02/12 10:20:34;;;;;;;3.93;2.70;;;14.80;78.20;;;;;;5095613;28;20402;-71
2022/02/12 10:23:09;;;;;;;3.60;2.60;;;14.80;77.80;;;;;;5095025;28;20398;-70
2022/02/12 10:25:37;;;;;;;7.10;2.40;;;15.00;79.00;;;;;;5095389;28;20404;-69
2022/02/12 10:28:04;;;;;;;3.43;2.70;;;15.00;78.40;;;;;;5095198;28;20794;-69
2022/02/12 10:30:30;;;;;;;3.43;2.60;;;15.00;77.70;;;;;;5095188;28;20402;-72
2022/02/12 10:32:58;;;;;;;2.60;2.40;;;14.80;77.80;;;;;;5094747;28;20390;-69
2022/02/12 10:35:24;;;;;;;4.03;2.30;;;14.70;78.10;;;;;;5094966;28;20501;-71
2022/02/12 10:37:51;;;;;;;3.13;2.10;;;14.70;76.80;;;;;;5095046;28;20436;-70
2022/02/12 10:40:16;;;;;;;3.10;2.27;;;14.50;76.90;;;;;;5093438;28;20442;-69
2022/02/12 10:42:46;;;;;;;2.80;2.20;;;14.50;78.30;;;;;;5112206;28;20416;-71
2022/02/12 10:45:19;;;;;;;3.13;2.00;;;14.20;78.40;;;;;;5112328;28;20936;-70
2022/02/12 10:47:49;;;;;;;2.07;1.97;;;13.90;79.00;;;;;;5113249;28;20554;-71
2022/02/12 10:50:17;;;;;;;2.57;2.30;;;13.70;79.30;;;;;;5113007;28;20414;-71
2022/02/12 10:52:45;;;;;;;6.03;2.17;;;13.50;79.10;;;;;;5112618;28;20477;-71
2022/02/12 10:55:41;;;;;;;3.30;2.10;;;13.40;79.90;;;;;;5112877;28;20447;-70
2022/02/12 10:58:18;;;;;;;3.40;2.00;;;13.10;79.00;;;;;;5095771;28;20423;-70
2022/02/12 11:00:43;;;;;;;2.90;2.60;;;12.80;79.50;;;;;;5079304;28;20433;-71
2022/02/12 11:03:12;;;;;;;5.27;2.10;;;12.60;79.20;;;;;;5112449;28;20434;-71
2022/02/12 11:05:42;;;;;;;1.97;1.87;;;12.30;80.20;;;;;;5112692;28;20230;-70
2022/02/12 11:08:09;;;;;;;4.20;2.37;;;12.20;80.90;;;;;;5112925;28;20401;-70
2022/02/12 11:10:36;;;;;;;4.00;2.03;;;11.90;80.80;;;;;;5112360;28;20899;-70
2022/02/12 11:13:04;;;;;;;6.50;2.87;;;11.70;81.40;;;;;;5107882;28;20438;-70
2022/02/12 11:15:31;;;;;;;3.80;2.60;;;11.60;82.70;;;;;;5094225;28;20450;-71
2022/02/12 11:18:03;;;;;;;5.80;3.23;;;11.60;82.70;;;;;;5093048;28;20403;-71
2022/02/12 11:20:29;;;;;;;3.27;2.23;;;11.70;82.00;;;;;;5094252;28;20408;-70
2022/02/12 11:23:18;;;;;;;4.97;2.13;;;11.60;81.90;;;;;;5094497;28;20398;-71
2022/02/12 11:25:44;;;;;;;2.97;2.70;;;11.40;81.70;;;;;;5093368;28;20954;-70
2022/02/12 11:28:11;;;;;;;5.40;2.17;;;11.00;80.80;;;;;;5092685;28;20405;-71
2022/02/12 11:30:39;;;;;;;3.73;2.13;;;10.50;83.60;;;;;;5094056;28;20408;-71
2022/02/12 11:33:08;;;;;;;3.03;2.27;;;10.00;85.70;;;;;;5091966;28;20412;-70
2022/02/12 11:35:33;;;;;;;2.67;2.45;;;9.50;88.40;;;;;;5093204;28;20418;-71
2022/02/12 11:37:59;;;;;;;3.63;2.50;;;9.10;87.80;;;;;;5093666;28;20694;-70
2022/02/12 11:40:28;;;;;;;3.28;2.10;;;8.70;89.90;;;;;;5092156;28;20168;-70
2022/02/12 11:43:01;;;;;;;3.97;2.05;;;8.30;90.40;;;;;;5092931;28;20176;-71
2022/02/12 11:45:29;;;;;;;1.60;1.50;;;8.10;91.20;;;;;;5093079;28;20207;-70
2022/02/12 11:48:09;;;;;;;1.55;1.40;;;8.00;92.10;;;;;;5093248;28;20179;-69
2022/02/12 11:50:44;;;;;;;1.27;1.27;;;7.90;90.00;;;;;;5093439;28;20168;-70
2022/02/12 11:53:49;;;;;;;1.50;1.40;;;7.80;86.50;;;;;;5093299;28;20533;-71
2022/02/12 11:56:17;;;;;;;2.42;0.90;;;7.70;88.20;;;;;;5092990;28;20687;-70
2022/02/12 11:58:45;;;;;;;1.13;1.02;;;7.70;87.40;;;;;;5093418;28;20175;-72
2022/02/12 12:01:28;;;;;;;1.88;1.77;;;7.70;86.60;;;;;;5093344;28;20183;-69
2022/02/12 12:04:19;;;;;;;4.60;1.70;;;7.50;86.10;;;;;;5092454;28;20209;-71
2022/02/12 12:07:05;;;;;;;1.55;1.45;;;7.50;85.40;;;;;;5093591;28;20195;-68
2022/02/12 12:09:39;;;;;;;1.45;1.45;;;7.50;82.80;;;;;;5093498;28;20266;-69
2022/02/12 12:12:11;;;;;;;0.90;0.80;;;7.40;83.40;;;;;;5093140;28;20163;-69
2022/02/12 12:14:40;;;;;;;2.00;1.40;;;7.40;84.70;;;;;;5092490;28;20248;-69
2022/02/12 12:17:07;;;;;;;0.98;0.95;;;7.40;83.30;;;;;;5093003;28;20191;-70
2022/02/12 12:19:35;;;;;;;1.52;1.52;;;7.40;82.90;;;;;;5091588;28;20328;-70
2022/02/12 12:22:04;;;;;;;1.35;1.25;;;7.30;82.50;;;;;;5093128;28;20175;-71
2022/02/12 12:24:30;;;;;;;2.00;1.90;;;7.30;83.30;;;;;;5092377;28;20223;-69
2022/02/12 12:26:56;;;;;;;2.15;1.63;;;7.30;82.90;;;;;;5091916;28;20645;-70
2022/02/12 12:32:13;;;;;;;2.10;1.80;;;7.40;82.70;;;;;;5095014;28;20249;-71
2022/02/12 12:34:54;;;;;;;1.88;1.77;;;7.50;82.10;;;;;;5094317;28;20194;-71
2022/02/12 12:37:24;;;;;;;1.58;1.20;;;7.50;83.00;;;;;;5092779;28;20598;-71
2022/02/12 12:39:50;;;;;;;1.05;1.05;;;7.60;82.10;;;;;;5094130;28;20568;-71
2022/02/12 12:42:24;;;;;;;2.55;1.50;;;7.60;80.90;;;;;;5094048;28;20175;-71
2022/02/12 12:45:00;;;;;;;1.98;1.38;;;7.70;81.50;;;;;;5092900;28;20559;-72
2022/02/12 12:47:30;;;;;;;1.77;1.67;;;7.60;81.30;;;;;;5093329;28;20175;-70
2022/02/12 12:49:58;;;;;;;1.58;1.48;;;7.60;81.10;;;;;;5093586;28;20172;-71
2022/02/12 12:52:31;;;;;;;3.05;1.10;;;7.60;80.90;;;;;;5093079;28;20179;-71
2022/02/12 12:55:08;;;;;;;1.30;1.20;;;7.60;81.50;;;;;;5092749;28;20202;-70
2022/02/12 12:57:39;;;;;;;1.30;1.27;;;7.60;81.00;;;;;;5093241;28;20232;-70